sensor_id;sensor_type;location;lat;lon;timestamp;pressure;altitude;pressure_sealevel;temperature;humidity
80566;BME280;69915;54.862;10.730;2023-09-19T00:01:22;99866.84;;;17.11;91.40
80566;BME280;69915;54.862;10.730;2023-09-19T00:03:48;99860.22;;;17.16;91.50
80566;BME280;69915;54.862;10.730;2023-09-19T00:06:13;99879.50;;;17.12;91.41
80566;BME280;69915;54.862;10.730;2023-09-19T00:08:39;99878.22;;;17.10;91.77
80566;BME280;69915;54.862;10.730;2023-09-19T00:11:05;99882.41;;;17.04;91.90
80566;BME280;69915;54.862;10.730;2023-09-19T00:13:31;99886.06;;;17.08;91.91
80566;BME280;69915;54.862;10.730;2023-09-19T00:15:56;99859.59;;;16.91;91.97
80566;BME280;69915;54.862;10.730;2023-09-19T00:18:24;99860.41;;;16.92;91.99
80566;BME280;69915;54.862;10.730;2023-09-19T00:20:57;99885.03;;;16.97;92.54
80566;BME280;69915;54.862;10.730;2023-09-19T00:23:22;99868.25;;;16.90;92.70
80566;BME280;69915;54.862;10.730;2023-09-19T00:25:50;99869.41;;;16.88;92.81
80566;BME280;69915;54.862;10.730;2023-09-19T00:28:17;99887.31;;;16.95;92.81
80566;BME280;69915;54.862;10.730;2023-09-19T00:30:44;99876.75;;;16.97;92.73
80566;BME280;69915;54.862;10.730;2023-09-19T00:33:10;99889.03;;;16.99;92.51
80566;BME280;69915;54.862;10.730;2023-09-19T00:35:53;99880.13;;;16.90;93.10
80566;BME280;69915;54.862;10.730;2023-09-19T00:38:20;99873.88;;;16.93;92.88
80566;BME280;69915;54.862;10.730;2023-09-19T00:40:48;99872.44;;;16.83;93.43
80566;BME280;69915;54.862;10.730;2023-09-19T00:43:14;99881.63;;;16.88;93.46
80566;BME280;69915;54.862;10.730;2023-09-19T00:45:43;99903.78;;;16.91;93.32
80566;BME280;69915;54.862;10.730;2023-09-19T00:48:10;99883.31;;;16.92;92.84
80566;BME280;69915;54.862;10.730;2023-09-19T00:50:38;99883.13;;;16.85;93.03
80566;BME280;69915;54.862;10.730;2023-09-19T00:53:07;99876.97;;;16.92;92.96
80566;BME280;69915;54.862;10.730;2023-09-19T00:55:38;99886.59;;;16.98;93.23
80566;BME280;69915;54.862;10.730;2023-09-19T00:58:05;99882.50;;;16.92;92.98
80566;BME280;69915;54.862;10.730;2023-09-19T01:00:35;99894.81;;;17.10;92.35
80566;BME280;69915;54.862;10.730;2023-09-19T01:03:01;99891.31;;;17.13;92.15
80566;BME280;69915;54.862;10.730;2023-09-19T01:05:27;99888.50;;;17.09;92.58
80566;BME280;69915;54.862;10.730;2023-09-19T01:07:53;99861.31;;;16.96;92.22
80566;BME280;69915;54.862;10.730;2023-09-19T01:10:20;99895.06;;;17.05;92.49
80566;BME280;69915;54.862;10.730;2023-09-19T01:13:01;99886.16;;;17.11;92.24
80566;BME280;69915;54.862;10.730;2023-09-19T01:31:33;99910.50;;;17.06;91.74
80566;BME280;69915;54.862;10.730;2023-09-19T01:34:03;99927.16;;;17.09;92.09
80566;BME280;69915;54.862;10.730;2023-09-19T01:36:36;99917.88;;;17.02;92.73
80566;BME280;69915;54.862;10.730;2023-09-19T01:39:06;99907.34;;;16.92;93.02
80566;BME280;69915;54.862;10.730;2023-09-19T01:41:47;99927.78;;;17.03;92.80
80566;BME280;69915;54.862;10.730;2023-09-19T01:44:26;99919.03;;;17.01;92.97
80566;BME280;69915;54.862;10.730;2023-09-19T01:46:58;99922.78;;;16.93;93.10
80566;BME280;69915;54.862;10.730;2023-09-19T01:49:37;99924.53;;;16.85;93.46
80566;BME280;69915;54.862;10.730;2023-09-19T01:52:12;99939.34;;;16.93;94.17
80566;BME280;69915;54.862;10.730;2023-09-19T01:54:52;99925.09;;;16.91;94.49
80566;BME280;69915;54.862;10.730;2023-09-19T01:57:42;99938.09;;;16.90;95.79
80566;BME280;69915;54.862;10.730;2023-09-19T02:00:12;99920.06;;;16.65;96.71
80566;BME280;69915;54.862;10.730;2023-09-19T02:02:45;99920.09;;;16.53;97.12
80566;BME280;69915;54.862;10.730;2023-09-19T02:05:12;99923.66;;;16.53;97.94
80566;BME280;69915;54.862;10.730;2023-09-19T02:07:38;99922.00;;;16.37;98.02
80566;BME280;69915;54.862;10.730;2023-09-19T02:10:06;99906.50;;;16.32;98.05
80566;BME280;69915;54.862;10.730;2023-09-19T02:12:32;99934.03;;;16.44;97.87
80566;BME280;69915;54.862;10.730;2023-09-19T02:14:58;99932.69;;;16.38;98.07
80566;BME280;69915;54.862;10.730;2023-09-19T02:17:25;99918.25;;;16.29;97.84
80566;BME280;69915;54.862;10.730;2023-09-19T02:19:54;99947.84;;;16.44;96.41
80566;BME280;69915;54.862;10.730;2023-09-19T02:22:24;99930.63;;;16.35;96.35
80566;BME280;69915;54.862;10.730;2023-09-19T02:24:50;99949.03;;;16.31;95.65
80566;BME280;69915;54.862;10.730;2023-09-19T02:27:16;99924.59;;;16.17;95.18
80566;BME280;69915;54.862;10.730;2023-09-19T02:29:43;99933.59;;;16.14;94.96
80566;BME280;69915;54.862;10.730;2023-09-19T02:32:09;99926.22;;;16.06;95.35
80566;BME280;69915;54.862;10.730;2023-09-19T02:34:37;99948.75;;;16.08;95.17
80566;BME280;69915;54.862;10.730;2023-09-19T02:37:05;99957.34;;;16.19;95.07
80566;BME280;69915;54.862;10.730;2023-09-19T02:39:31;99955.72;;;16.18;94.07
80566;BME280;69915;54.862;10.730;2023-09-19T02:41:58;99946.91;;;16.12;93.68
80566;BME280;69915;54.862;10.730;2023-09-19T02:44:23;99947.25;;;16.11;93.07
80566;BME280;69915;54.862;10.730;2023-09-19T02:46:49;99944.94;;;16.13;91.79
80566;BME280;69915;54.862;10.730;2023-09-19T02:49:15;99944.25;;;16.16;91.76
80566;BME280;69915;54.862;10.730;2023-09-19T02:51:40;99938.16;;;16.22;91.67
80566;BME280;69915;54.862;10.730;2023-09-19T02:54:06;99948.84;;;16.12;91.19
80566;BME280;69915;54.862;10.730;2023-09-19T02:59:54;99918.44;;;15.96;90.15
80566;BME280;69915;54.862;10.730;2023-09-19T03:02:20;99955.53;;;16.11;90.03
80566;BME280;69915;54.862;10.730;2023-09-19T03:04:45;99955.06;;;16.09;88.90
80566;BME280;69915;54.862;10.730;2023-09-19T03:07:12;99950.50;;;16.01;89.37
80566;BME280;69915;54.862;10.730;2023-09-19T03:09:37;99960.84;;;15.92;89.97
80566;BME280;69915;54.862;10.730;2023-09-19T03:12:03;99962.91;;;15.95;90.13
80566;BME280;69915;54.862;10.730;2023-09-19T03:14:29;99956.94;;;15.93;90.05
80566;BME280;69915;54.862;10.730;2023-09-19T03:17:00;99950.63;;;15.92;89.43
80566;BME280;69915;54.862;10.730;2023-09-19T03:19:26;99949.59;;;15.85;90.08
80566;BME280;69915;54.862;10.730;2023-09-19T03:21:52;99962.34;;;15.89;90.24
80566;BME280;69915;54.862;10.730;2023-09-19T03:24:18;99967.06;;;15.89;90.30
80566;BME280;69915;54.862;10.730;2023-09-19T03:26:44;99976.47;;;15.88;90.70
80566;BME280;69915;54.862;10.730;2023-09-19T03:29:10;99972.13;;;15.87;91.46
80566;BME280;69915;54.862;10.730;2023-09-19T03:31:36;99937.44;;;15.73;89.96
80566;BME280;69915;54.862;10.730;2023-09-19T03:34:04;99969.13;;;15.92;90.26
80566;BME280;69915;54.862;10.730;2023-09-19T03:36:30;99954.19;;;15.93;89.62
80566;BME280;69915;54.862;10.730;2023-09-19T03:38:55;99973.91;;;16.07;89.28
80566;BME280;69915;54.862;10.730;2023-09-19T03:41:21;99961.97;;;15.91;89.62
80566;BME280;69915;54.862;10.730;2023-09-19T03:43:46;99967.03;;;16.01;89.14
80566;BME280;69915;54.862;10.730;2023-09-19T03:46:12;99943.06;;;15.89;88.64
80566;BME280;69915;54.862;10.730;2023-09-19T03:48:38;99953.94;;;15.98;89.03
80566;BME280;69915;54.862;10.730;2023-09-19T03:51:03;99930.41;;;15.88;88.71
80566;BME280;69915;54.862;10.730;2023-09-19T03:53:29;99972.41;;;16.09;86.19
80566;BME280;69915;54.862;10.730;2023-09-19T03:55:55;99978.53;;;15.91;86.86
80566;BME280;69915;54.862;10.730;2023-09-19T03:58:20;100002.06;;;14.95;93.42
80566;BME280;69915;54.862;10.730;2023-09-19T04:00:46;100010.53;;;14.36;96.75
80566;BME280;69915;54.862;10.730;2023-09-19T04:03:11;100028.84;;;14.03;95.85
80566;BME280;69915;54.862;10.730;2023-09-19T04:05:45;100015.75;;;13.71;96.67
80566;BME280;69915;54.862;10.730;2023-09-19T04:08:11;100004.41;;;13.51;97.92
80566;BME280;69915;54.862;10.730;2023-09-19T04:10:37;99999.28;;;13.41;99.25
80566;BME280;69915;54.862;10.730;2023-09-19T04:13:03;100006.69;;;13.41;99.03
80566;BME280;69915;54.862;10.730;2023-09-19T04:15:29;100008.81;;;13.35;97.81
80566;BME280;69915;54.862;10.730;2023-09-19T04:17:55;100009.47;;;13.32;96.98
80566;BME280;69915;54.862;10.730;2023-09-19T04:20:20;100014.66;;;13.25;95.95
80566;BME280;69915;54.862;10.730;2023-09-19T04:22:48;100020.50;;;13.15;96.25
80566;BME280;69915;54.862;10.730;2023-09-19T04:25:14;100020.50;;;13.06;97.18
80566;BME280;69915;54.862;10.730;2023-09-19T04:27:40;100040.88;;;13.14;98.54
80566;BME280;69915;54.862;10.730;2023-09-19T04:30:07;100030.97;;;13.22;97.77
80566;BME280;69915;54.862;10.730;2023-09-19T04:32:37;100021.94;;;13.21;97.29
80566;BME280;69915;54.862;10.730;2023-09-19T04:35:09;100030.63;;;13.32;97.56
80566;BME280;69915;54.862;10.730;2023-09-19T04:37:39;100041.25;;;13.42;97.27
80566;BME280;69915;54.862;10.730;2023-09-19T04:40:09;100050.78;;;13.44;97.58
80566;BME280;69915;54.862;10.730;2023-09-19T04:42:38;100049.16;;;13.43;97.63
80566;BME280;69915;54.862;10.730;2023-09-19T04:45:04;100033.19;;;13.37;97.74
80566;BME280;69915;54.862;10.730;2023-09-19T04:47:30;100035.94;;;13.45;98.08
80566;BME280;69915;54.862;10.730;2023-09-19T04:49:55;100056.09;;;13.49;98.62
80566;BME280;69915;54.862;10.730;2023-09-19T04:52:23;100050.09;;;13.56;98.70
80566;BME280;69915;54.862;10.730;2023-09-19T04:54:48;100056.03;;;13.58;98.83
80566;BME280;69915;54.862;10.730;2023-09-19T04:57:14;100032.69;;;13.43;98.64
80566;BME280;69915;54.862;10.730;2023-09-19T04:59:40;100034.63;;;13.51;97.34
80566;BME280;69915;54.862;10.730;2023-09-19T05:02:06;100039.28;;;13.51;97.02
80566;BME280;69915;54.862;10.730;2023-09-19T05:04:33;100054.59;;;13.60;97.00
80566;BME280;69915;54.862;10.730;2023-09-19T05:06:59;100033.50;;;13.44;97.45
80566;BME280;69915;54.862;10.730;2023-09-19T05:09:26;100063.31;;;13.62;96.59
80566;BME280;69915;54.862;10.730;2023-09-19T05:11:51;100047.16;;;13.61;96.13
80566;BME280;69915;54.862;10.730;2023-09-19T05:14:18;100069.78;;;13.67;95.90
80566;BME280;69915;54.862;10.730;2023-09-19T05:16:44;100072.31;;;13.72;95.15
80566;BME280;69915;54.862;10.730;2023-09-19T05:19:09;100047.00;;;13.66;94.03
80566;BME280;69915;54.862;10.730;2023-09-19T05:21:36;100039.66;;;13.79;93.40
80566;BME280;69915;54.862;10.730;2023-09-19T05:24:05;100061.28;;;13.80;93.37
80566;BME280;69915;54.862;10.730;2023-09-19T05:26:32;100047.69;;;13.84;93.11
80566;BME280;69915;54.862;10.730;2023-09-19T05:28:57;100058.03;;;13.87;92.75
80566;BME280;69915;54.862;10.730;2023-09-19T05:31:23;100076.03;;;14.05;92.76
80566;BME280;69915;54.862;10.730;2023-09-19T05:33:50;100078.06;;;14.16;92.89
80566;BME280;69915;54.862;10.730;2023-09-19T05:36:15;100082.84;;;14.37;91.82
80566;BME280;69915;54.862;10.730;2023-09-19T05:38:41;100065.78;;;14.43;91.79
80566;BME280;69915;54.862;10.730;2023-09-19T05:41:07;100091.84;;;14.66;92.21
80566;BME280;69915;54.862;10.730;2023-09-19T05:43:34;100075.78;;;14.68;91.51
80566;BME280;69915;54.862;10.730;2023-09-19T05:46:03;100087.47;;;14.65;92.40
80566;BME280;69915;54.862;10.730;2023-09-19T05:48:28;100088.34;;;14.57;91.88
80566;BME280;69915;54.862;10.730;2023-09-19T05:50:54;100095.94;;;14.60;91.29
80566;BME280;69915;54.862;10.730;2023-09-19T05:53:19;100101.75;;;14.59;91.69
80566;BME280;69915;54.862;10.730;2023-09-19T05:55:45;100093.72;;;14.54;91.53
80566;BME280;69915;54.862;10.730;2023-09-19T05:58:11;100095.06;;;14.48;91.50
80566;BME280;69915;54.862;10.730;2023-09-19T06:00:39;100113.44;;;14.56;91.36
80566;BME280;69915;54.862;10.730;2023-09-19T06:03:07;100105.31;;;14.59;90.98
80566;BME280;69915;54.862;10.730;2023-09-19T06:05:33;100107.84;;;14.44;90.89
80566;BME280;69915;54.862;10.730;2023-09-19T06:07:59;100120.22;;;14.58;90.76
80566;BME280;69915;54.862;10.730;2023-09-19T06:10:33;100125.06;;;14.61;91.00
80566;BME280;69915;54.862;10.730;2023-09-19T06:13:01;100122.03;;;14.54;91.51
80566;BME280;69915;54.862;10.730;2023-09-19T06:15:29;100120.69;;;14.60;90.40
80566;BME280;69915;54.862;10.730;2023-09-19T06:17:58;100120.69;;;14.60;91.32
80566;BME280;69915;54.862;10.730;2023-09-19T06:20:25;100139.50;;;14.79;90.76
80566;BME280;69915;54.862;10.730;2023-09-19T06:22:52;100133.31;;;14.82;90.26
80566;BME280;69915;54.862;10.730;2023-09-19T06:25:18;100137.34;;;14.85;89.51
80566;BME280;69915;54.862;10.730;2023-09-19T06:27:52;100141.72;;;14.86;88.89
80566;BME280;69915;54.862;10.730;2023-09-19T06:30:19;100131.25;;;14.79;88.43
80566;BME280;69915;54.862;10.730;2023-09-19T06:32:45;100137.41;;;14.97;87.79
80566;BME280;69915;54.862;10.730;2023-09-19T06:35:12;100149.16;;;15.06;87.53
80566;BME280;69915;54.862;10.730;2023-09-19T06:37:38;100129.44;;;15.04;86.87
80566;BME280;69915;54.862;10.730;2023-09-19T06:40:11;100128.88;;;15.10;85.08
80566;BME280;69915;54.862;10.730;2023-09-19T06:42:45;100164.25;;;15.20;83.75
80566;BME280;69915;54.862;10.730;2023-09-19T06:45:15;100151.97;;;15.18;83.91
80566;BME280;69915;54.862;10.730;2023-09-19T06:47:49;100162.03;;;15.14;84.38
80566;BME280;69915;54.862;10.730;2023-09-19T06:50:19;100159.50;;;15.09;85.84
80566;BME280;69915;54.862;10.730;2023-09-19T06:52:47;100150.91;;;14.90;86.48
80566;BME280;69915;54.862;10.730;2023-09-19T06:55:18;100180.72;;;14.88;86.16
80566;BME280;69915;54.862;10.730;2023-09-19T06:57:45;100186.81;;;14.73;87.17
80566;BME280;69915;54.862;10.730;2023-09-19T07:00:12;100193.44;;;14.71;88.38
80566;BME280;69915;54.862;10.730;2023-09-19T07:02:44;100170.50;;;14.38;89.49
80566;BME280;69915;54.862;10.730;2023-09-19T07:05:10;100193.50;;;14.25;91.15
80566;BME280;69915;54.862;10.730;2023-09-19T07:07:36;100214.56;;;14.21;93.15
80566;BME280;69915;54.862;10.730;2023-09-19T07:10:03;100211.06;;;13.95;94.56
80566;BME280;69915;54.862;10.730;2023-09-19T07:12:31;100198.72;;;13.63;95.22
80566;BME280;69915;54.862;10.730;2023-09-19T07:14:58;100195.19;;;13.45;95.06
80566;BME280;69915;54.862;10.730;2023-09-19T07:17:23;100182.09;;;13.34;95.33
80566;BME280;69915;54.862;10.730;2023-09-19T07:19:49;100193.91;;;13.34;96.98
80566;BME280;69915;54.862;10.730;2023-09-19T07:22:15;100201.00;;;13.35;97.34
80566;BME280;69915;54.862;10.730;2023-09-19T07:24:41;100215.22;;;13.29;97.29
80566;BME280;69915;54.862;10.730;2023-09-19T07:27:06;100203.91;;;13.13;98.02
80566;BME280;69915;54.862;10.730;2023-09-19T07:29:32;100223.28;;;13.25;98.01
80566;BME280;69915;54.862;10.730;2023-09-19T07:31:57;100206.66;;;13.30;98.67
80566;BME280;69915;54.862;10.730;2023-09-19T07:34:23;100189.88;;;13.32;98.83
80566;BME280;69915;54.862;10.730;2023-09-19T07:36:49;100180.66;;;13.28;99.13
80566;BME280;69915;54.862;10.730;2023-09-19T07:39:15;100184.53;;;13.35;99.80
80566;BME280;69915;54.862;10.730;2023-09-19T07:41:40;100207.78;;;13.46;98.73
80566;BME280;69915;54.862;10.730;2023-09-19T07:44:07;100192.78;;;13.35;98.50
80566;BME280;69915;54.862;10.730;2023-09-19T07:46:35;100212.00;;;13.44;97.56
80566;BME280;69915;54.862;10.730;2023-09-19T07:49:01;100214.75;;;13.35;98.28
80566;BME280;69915;54.862;10.730;2023-09-19T07:51:26;100205.84;;;13.21;98.02
80566;BME280;69915;54.862;10.730;2023-09-19T07:53:52;100231.53;;;13.34;98.98
80566;BME280;69915;54.862;10.730;2023-09-19T07:56:18;100228.28;;;13.40;99.29
80566;BME280;69915;54.862;10.730;2023-09-19T07:58:45;100201.31;;;13.34;99.06
80566;BME280;69915;54.862;10.730;2023-09-19T08:01:10;100217.16;;;13.45;99.25
80566;BME280;69915;54.862;10.730;2023-09-19T08:03:37;100214.72;;;13.52;99.73
80566;BME280;69915;54.862;10.730;2023-09-19T08:06:06;100208.56;;;13.55;100.00
80566;BME280;69915;54.862;10.730;2023-09-19T08:08:33;100239.44;;;13.70;99.12
80566;BME280;69915;54.862;10.730;2023-09-19T08:11:03;100227.94;;;13.68;98.55
80566;BME280;69915;54.862;10.730;2023-09-19T08:13:36;100209.06;;;13.57;98.36
80566;BME280;69915;54.862;10.730;2023-09-19T08:16:03;100213.09;;;13.60;96.32
80566;BME280;69915;54.862;10.730;2023-09-19T08:18:29;100220.19;;;13.70;96.39
80566;BME280;69915;54.862;10.730;2023-09-19T08:20:55;100244.22;;;13.98;96.98
80566;BME280;69915;54.862;10.730;2023-09-19T08:23:24;100220.75;;;14.01;97.40
80566;BME280;69915;54.862;10.730;2023-09-19T08:25:49;100233.94;;;14.33;95.96
80566;BME280;69915;54.862;10.730;2023-09-19T08:28:15;100227.91;;;14.31;94.94
80566;BME280;69915;54.862;10.730;2023-09-19T08:30:45;100229.06;;;14.39;94.85
80566;BME280;69915;54.862;10.730;2023-09-19T08:33:11;100241.94;;;14.85;93.90
80566;BME280;69915;54.862;10.730;2023-09-19T08:35:36;100232.69;;;15.10;93.10
80566;BME280;69915;54.862;10.730;2023-09-19T08:38:03;100226.78;;;15.20;92.52
80566;BME280;69915;54.862;10.730;2023-09-19T08:40:34;100226.19;;;15.56;91.04
80566;BME280;69915;54.862;10.730;2023-09-19T08:43:01;100213.72;;;15.70;89.48
80566;BME280;69915;54.862;10.730;2023-09-19T08:45:28;100223.06;;;15.90;88.97
80566;BME280;69915;54.862;10.730;2023-09-19T08:50:31;100210.00;;;15.54;88.66
80566;BME280;69915;54.862;10.730;2023-09-19T08:53:07;100225.16;;;15.40;88.51
80566;BME280;69915;54.862;10.730;2023-09-19T08:55:36;100250.69;;;15.07;90.14
80566;BME280;69915;54.862;10.730;2023-09-19T08:58:06;100228.66;;;15.28;91.03
80566;BME280;69915;54.862;10.730;2023-09-19T09:00:35;100239.47;;;15.74;89.88
80566;BME280;69915;54.862;10.730;2023-09-19T09:03:03;100223.22;;;16.06;86.48
80566;BME280;69915;54.862;10.730;2023-09-19T09:05:32;100236.31;;;16.78;85.66
80566;BME280;69915;54.862;10.730;2023-09-19T09:08:01;100225.00;;;16.95;85.21
80566;BME280;69915;54.862;10.730;2023-09-19T09:10:29;100218.69;;;16.46;85.18
80566;BME280;69915;54.862;10.730;2023-09-19T09:12:54;100239.72;;;16.39;85.49
80566;BME280;69915;54.862;10.730;2023-09-19T09:15:21;100236.53;;;15.92;88.50
80566;BME280;69915;54.862;10.730;2023-09-19T09:17:49;100252.19;;;15.46;90.58
80566;BME280;69915;54.862;10.730;2023-09-19T09:20:22;100265.75;;;15.10;92.05
80566;BME280;69915;54.862;10.730;2023-09-19T09:22:51;100245.22;;;14.49;94.63
80566;BME280;69915;54.862;10.730;2023-09-19T09:25:17;100262.28;;;14.08;99.07
80566;BME280;69915;54.862;10.730;2023-09-19T09:27:43;100282.00;;;14.10;99.48
80566;BME280;69915;54.862;10.730;2023-09-19T09:30:36;100276.81;;;14.17;100.00
80566;BME280;69915;54.862;10.730;2023-09-19T09:33:10;100268.59;;;14.08;100.00
80566;BME280;69915;54.862;10.730;2023-09-19T09:35:38;100250.84;;;13.97;99.99
80566;BME280;69915;54.862;10.730;2023-09-19T09:38:12;100270.66;;;14.20;100.00
80566;BME280;69915;54.862;10.730;2023-09-19T09:40:49;100238.91;;;14.31;100.00
80566;BME280;69915;54.862;10.730;2023-09-19T09:43:26;100248.63;;;14.46;99.32
80566;BME280;69915;54.862;10.730;2023-09-19T09:51:40;100261.66;;;14.87;95.64
80566;BME280;69915;54.862;10.730;2023-09-19T09:54:12;100250.66;;;14.87;94.49
80566;BME280;69915;54.862;10.730;2023-09-19T09:56:57;100243.66;;;14.89;95.89
80566;BME280;69915;54.862;10.730;2023-09-19T10:02:17;100248.13;;;15.23;94.91
80566;BME280;69915;54.862;10.730;2023-09-19T10:04:55;100240.09;;;15.59;92.77
80566;BME280;69915;54.862;10.730;2023-09-19T10:07:40;100231.63;;;15.64;90.27
80566;BME280;69915;54.862;10.730;2023-09-19T10:10:12;100221.50;;;15.56;90.15
80566;BME280;69915;54.862;10.730;2023-09-19T10:12:47;100230.75;;;15.52;89.55
80566;BME280;69915;54.862;10.730;2023-09-19T10:15:17;100262.69;;;15.53;91.09
80566;BME280;69915;54.862;10.730;2023-09-19T10:17:46;100270.22;;;15.35;92.29
80566;BME280;69915;54.862;10.730;2023-09-19T10:20:13;100251.75;;;15.15;92.44
80566;BME280;69915;54.862;10.730;2023-09-19T10:22:57;100256.34;;;15.32;92.74
80566;BME280;69915;54.862;10.730;2023-09-19T10:25:25;100266.28;;;15.24;92.86
80566;BME280;69915;54.862;10.730;2023-09-19T10:27:54;100268.56;;;15.43;93.39
80566;BME280;69915;54.862;10.730;2023-09-19T10:30:22;100251.22;;;15.42;91.50
80566;BME280;69915;54.862;10.730;2023-09-19T10:32:57;100250.50;;;15.74;90.65
80566;BME280;69915;54.862;10.730;2023-09-19T10:35:24;100250.34;;;16.04;90.33
80566;BME280;69915;54.862;10.730;2023-09-19T10:37:51;100251.97;;;16.05;88.44
80566;BME280;69915;54.862;10.730;2023-09-19T10:40:20;100261.75;;;16.14;88.42
80566;BME280;69915;54.862;10.730;2023-09-19T10:42:48;100253.03;;;16.24;87.32
80566;BME280;69915;54.862;10.730;2023-09-19T10:45:16;100236.38;;;16.33;87.11
80566;BME280;69915;54.862;10.730;2023-09-19T10:47:44;100247.31;;;16.29;87.15
80566;BME280;69915;54.862;10.730;2023-09-19T10:50:19;100242.84;;;16.49;85.66
80566;BME280;69915;54.862;10.730;2023-09-19T10:52:47;100252.03;;;16.53;86.09
80566;BME280;69915;54.862;10.730;2023-09-19T10:55:19;100241.44;;;16.43;84.17
80566;BME280;69915;54.862;10.730;2023-09-19T10:57:46;100259.94;;;16.43;85.00
80566;BME280;69915;54.862;10.730;2023-09-19T11:00:12;100272.47;;;16.28;84.31
80566;BME280;69915;54.862;10.730;2023-09-19T11:05:37;100290.19;;;15.32;88.96
80566;BME280;69915;54.862;10.730;2023-09-19T11:08:07;100287.84;;;14.93;90.39
80566;BME280;69915;54.862;10.730;2023-09-19T11:10:47;100281.75;;;14.87;90.66
80566;BME280;69915;54.862;10.730;2023-09-19T11:13:32;100254.91;;;15.05;91.29
80566;BME280;69915;54.862;10.730;2023-09-19T11:27:09;100231.50;;;16.06;87.79
80566;BME280;69915;54.862;10.730;2023-09-19T11:29:35;100253.94;;;16.16;85.68
80566;BME280;69915;54.862;10.730;2023-09-19T11:32:01;100224.84;;;16.07;85.37
80566;BME280;69915;54.862;10.730;2023-09-19T11:37:02;100236.16;;;16.50;84.55
80566;BME280;69915;54.862;10.730;2023-09-19T11:39:30;100247.34;;;16.78;82.11
80566;BME280;69915;54.862;10.730;2023-09-19T11:41:56;100248.59;;;16.93;82.42
80566;BME280;69915;54.862;10.730;2023-09-19T11:49:18;100233.09;;;17.28;78.91
80566;BME280;69915;54.862;10.730;2023-09-19T11:51:50;100236.94;;;17.23;79.70
80566;BME280;69915;54.862;10.730;2023-09-19T11:54:19;100246.69;;;17.33;78.85
80566;BME280;69915;54.862;10.730;2023-09-19T11:56:50;100244.69;;;17.58;77.79
80566;BME280;69915;54.862;10.730;2023-09-19T11:59:23;100233.19;;;17.99;76.69
80566;BME280;69915;54.862;10.730;2023-09-19T12:02:04;100238.53;;;18.08;75.38
80566;BME280;69915;54.862;10.730;2023-09-19T12:04:37;100237.38;;;17.65;75.76
80566;BME280;69915;54.862;10.730;2023-09-19T12:07:13;100229.31;;;17.32;76.00
80566;BME280;69915;54.862;10.730;2023-09-19T12:09:42;100230.41;;;17.43;76.22
80566;BME280;69915;54.862;10.730;2023-09-19T12:12:10;100241.75;;;17.26;77.63
80566;BME280;69915;54.862;10.730;2023-09-19T12:14:38;100241.22;;;17.09;78.03
80566;BME280;69915;54.862;10.730;2023-09-19T12:17:04;100239.03;;;17.02;79.37
80566;BME280;69915;54.862;10.730;2023-09-19T12:19:30;100254.19;;;17.20;80.34
80566;BME280;69915;54.862;10.730;2023-09-19T12:24:23;100245.72;;;16.89;76.88
80566;BME280;69915;54.862;10.730;2023-09-19T12:26:52;100241.59;;;16.83;77.81
80566;BME280;69915;54.862;10.730;2023-09-19T12:29:21;100269.31;;;16.86;77.97
80566;BME280;69915;54.862;10.730;2023-09-19T12:31:55;100244.72;;;16.57;77.42
80566;BME280;69915;54.862;10.730;2023-09-19T12:34:27;100237.00;;;16.63;76.79
80566;BME280;69915;54.862;10.730;2023-09-19T12:39:40;100237.13;;;16.66;76.42
80566;BME280;69915;54.862;10.730;2023-09-19T12:42:10;100270.25;;;16.78;77.02
80566;BME280;69915;54.862;10.730;2023-09-19T12:44:44;100243.09;;;16.56;75.90
80566;BME280;69915;54.862;10.730;2023-09-19T12:47:14;100262.06;;;16.70;75.47
80566;BME280;69915;54.862;10.730;2023-09-19T12:52:38;100236.09;;;16.71;76.11
80566;BME280;69915;54.862;10.730;2023-09-19T12:55:05;100248.84;;;16.88;76.06
80566;BME280;69915;54.862;10.730;2023-09-19T12:57:36;100243.19;;;16.96;75.23
80566;BME280;69915;54.862;10.730;2023-09-19T13:00:05;100222.34;;;17.11;74.15
80566;BME280;69915;54.862;10.730;2023-09-19T13:02:31;100217.13;;;17.49;72.97
80566;BME280;69915;54.862;10.730;2023-09-19T13:04:57;100225.56;;;17.80;70.83
80566;BME280;69915;54.862;10.730;2023-09-19T13:07:44;100201.13;;;17.98;71.46
80566;BME280;69915;54.862;10.730;2023-09-19T13:10:11;100213.31;;;18.09;70.51
80566;BME280;69915;54.862;10.730;2023-09-19T13:12:41;100203.22;;;18.17;69.65
80566;BME280;69915;54.862;10.730;2023-09-19T13:15:12;100217.66;;;18.26;70.72
80566;BME280;69915;54.862;10.730;2023-09-19T13:17:49;100196.19;;;18.19;70.62
80566;BME280;69915;54.862;10.730;2023-09-19T13:20:25;100218.38;;;18.23;71.88
80566;BME280;69915;54.862;10.730;2023-09-19T13:22:53;100221.22;;;18.11;71.01
80566;BME280;69915;54.862;10.730;2023-09-19T13:25:21;100218.53;;;17.99;71.94
80566;BME280;69915;54.862;10.730;2023-09-19T13:27:52;100189.72;;;17.84;71.19
80566;BME280;69915;54.862;10.730;2023-09-19T13:30:20;100210.00;;;18.04;71.81
80566;BME280;69915;54.862;10.730;2023-09-19T13:32:46;100204.09;;;18.05;71.39
80566;BME280;69915;54.862;10.730;2023-09-19T13:35:15;100213.03;;;18.14;72.97
80566;BME280;69915;54.862;10.730;2023-09-19T13:37:41;100173.75;;;17.93;72.15
80566;BME280;69915;54.862;10.730;2023-09-19T13:40:10;100202.72;;;17.83;72.05
80566;BME280;69915;54.862;10.730;2023-09-19T13:42:37;100219.16;;;17.76;72.02
80566;BME280;69915;54.862;10.730;2023-09-19T13:45:04;100179.34;;;17.53;71.06
80566;BME280;69915;54.862;10.730;2023-09-19T13:47:32;100192.50;;;17.56;71.91
80566;BME280;69915;54.862;10.730;2023-09-19T13:50:02;100207.56;;;17.59;72.75